Time;durP1;ratioP1;P1;durP2;ratioP2;P2;SDS_P1;SDS_P2;PMS_P1;PMS_P2;Temp;Humidity;BMP_temperature;BMP_pressure;BME280_temperature;BME280_humidity;BME280_pressure;Samples;Min_cycle;Max_cycle;Signal;HPM_P1;HPM_P2
2022/12/19 00:00:07;;;;;;;2.53;1.30;;;;;;;;;;4995021;28;20034;-71
2022/12/19 00:02:33;;;;;;;2.95;1.05;;;;;;;;;;4998734;28;20037;-72
2022/12/19 00:04:59;;;;;;;3.28;1.30;;;;;;;;;;5001969;28;20037;-71
2022/12/19 00:07:26;;;;;;;3.78;1.35;;;;;;;;;;4999116;28;20037;-71
2022/12/19 00:09:52;;;;;;;4.07;2.00;;;;;;;;;;5003737;28;20033;-71
2022/12/19 00:12:18;;;;;;;4.53;1.30;;;;;;;;;;5003634;28;20045;-70
2022/12/19 00:14:44;;;;;;;5.30;1.50;;;;;;;;;;5001477;28;20022;-71
2022/12/19 00:17:10;;;;;;;4.25;1.35;;;;;;;;;;5002808;28;20041;-71
2022/12/19 00:19:36;;;;;;;4.68;1.20;;;;;;;;;;5001768;28;20394;-71
2022/12/19 00:22:03;;;;;;;4.63;1.40;;;;;;;;;;5000737;28;20225;-71
2022/12/19 00:24:29;;;;;;;4.45;1.40;;;;;;;;;;5003938;28;20542;-71
2022/12/19 00:26:55;;;;;;;2.38;1.83;;;;;;;;;;5000718;28;20050;-71
2022/12/19 00:29:21;;;;;;;7.65;1.83;;;;;;;;;;4996010;28;20041;-73
2022/12/19 00:31:47;;;;;;;3.20;1.30;;;;;;;;;;4999673;28;20034;-71
2022/12/19 00:34:13;;;;;;;4.68;1.60;;;;;;;;;;5001661;28;20113;-73
2022/12/19 00:36:39;;;;;;;3.30;1.33;;;;;;;;;;5001145;28;20037;-70
2022/12/19 00:39:06;;;;;;;6.30;1.40;;;;;;;;;;5003081;28;20018;-71
2022/12/19 00:41:34;;;;;;;3.83;1.38;;;;;;;;;;5002090;28;20025;-71
2022/12/19 00:44:01;;;;;;;4.50;1.15;;;;;;;;;;5004889;28;20025;-71
2022/12/19 00:46:28;;;;;;;8.38;1.30;;;;;;;;;;5001023;28;20022;-73
2022/12/19 00:48:54;;;;;;;2.75;1.20;;;;;;;;;;5001808;28;20029;-71
2022/12/19 00:51:22;;;;;;;3.20;1.10;;;;;;;;;;5002563;28;20172;-75
2022/12/19 00:53:49;;;;;;;5.90;1.50;;;;;;;;;;5000987;28;20552;-71
2022/12/19 00:56:16;;;;;;;3.35;1.38;;;;;;;;;;5003156;28;20137;-71
2022/12/19 00:58:43;;;;;;;3.38;1.30;;;;;;;;;;5003893;28;20024;-72
2022/12/19 01:01:10;;;;;;;5.18;1.30;;;;;;;;;;5003881;28;20021;-72
2022/12/19 01:03:36;;;;;;;5.22;1.20;;;;;;;;;;5002051;28;20475;-70
2022/12/19 01:06:02;;;;;;;4.35;1.13;;;;;;;;;;5004014;28;20026;-73
2022/12/19 01:08:28;;;;;;;3.53;1.65;;;;;;;;;;5001060;28;20034;-72
2022/12/19 01:10:55;;;;;;;6.80;1.58;;;;;;;;;;5000681;28;20022;-75
2022/12/19 01:13:22;;;;;;;7.53;1.83;;;;;;;;;;5002514;28;20030;-76
2022/12/19 01:15:48;;;;;;;2.33;1.10;;;;;;;;;;4999212;28;20211;-71
2022/12/19 01:18:14;;;;;;;4.15;1.10;;;;;;;;;;5002902;28;20033;-71
2022/12/19 01:20:41;;;;;;;4.28;1.50;;;;;;;;;;4999671;28;20034;-71
2022/12/19 01:23:08;;;;;;;4.47;1.52;;;;;;;;;;5002940;28;20077;-70
2022/12/19 01:25:34;;;;;;;8.82;1.33;;;;;;;;;;5001405;28;20100;-71
2022/12/19 01:28:01;;;;;;;3.42;1.30;;;;;;;;;;5003048;28;20387;-71
2022/12/19 01:30:27;;;;;;;7.78;1.45;;;;;;;;;;4999286;28;20026;-72
2022/12/19 01:32:53;;;;;;;4.13;1.48;;;;;;;;;;4999525;28;20037;-71
2022/12/19 01:35:20;;;;;;;3.05;1.40;;;;;;;;;;5000012;28;20029;-72
2022/12/19 01:37:46;;;;;;;4.57;1.30;;;;;;;;;;5000843;28;20022;-72
2022/12/19 01:40:13;;;;;;;2.85;1.40;;;;;;;;;;5003741;28;20141;-75
2022/12/19 01:42:40;;;;;;;6.15;1.30;;;;;;;;;;5000127;28;20036;-73
2022/12/19 01:45:09;;;;;;;3.58;2.15;;;;;;;;;;5000822;28;20142;-71
2022/12/19 01:47:44;;;;;;;8.95;1.50;;;;;;;;;;5001634;28;20346;-71
2022/12/19 01:50:15;;;;;;;3.17;1.30;;;;;;;;;;4994574;28;20038;-71
2022/12/19 01:52:41;;;;;;;5.00;1.20;;;;;;;;;;4997794;28;20465;-71
2022/12/19 01:55:08;;;;;;;4.20;1.80;;;;;;;;;;4998007;28;20044;-70
2022/12/19 01:57:34;;;;;;;2.03;1.20;;;;;;;;;;4998203;28;20028;-70
2022/12/19 02:00:03;;;;;;;3.88;1.20;;;;;;;;;;4991261;28;20058;-71
2022/12/19 02:02:32;;;;;;;3.75;1.20;;;;;;;;;;4997564;28;20044;-70
2022/12/19 02:05:00;;;;;;;5.43;1.38;;;;;;;;;;4996011;28;20590;-71
2022/12/19 02:07:27;;;;;;;4.40;1.23;;;;;;;;;;4996394;28;20034;-71
2022/12/19 02:09:54;;;;;;;3.00;1.20;;;;;;;;;;4998664;28;20021;-70
2022/12/19 02:12:20;;;;;;;8.73;1.60;;;;;;;;;;4996681;28;20042;-70
2022/12/19 02:14:47;;;;;;;5.18;2.45;;;;;;;;;;4998494;28;20032;-72
2022/12/19 02:17:22;;;;;;;3.65;1.30;;;;;;;;;;4997093;28;20021;-71
2022/12/19 02:19:54;;;;;;;6.80;1.20;;;;;;;;;;4998391;28;20736;-71
2022/12/19 02:22:27;;;;;;;6.95;1.42;;;;;;;;;;4997805;28;20036;-71
2022/12/19 02:24:56;;;;;;;5.30;1.95;;;;;;;;;;4994601;28;20025;-72
2022/12/19 02:27:28;;;;;;;4.25;1.63;;;;;;;;;;4995539;28;20037;-71
2022/12/19 02:30:07;;;;;;;4.03;1.30;;;;;;;;;;4997751;28;20025;-71
2022/12/19 02:32:33;;;;;;;6.07;1.77;;;;;;;;;;4994432;28;20112;-72
2022/12/19 02:35:08;;;;;;;2.80;1.98;;;;;;;;;;4995670;28;20075;-72
2022/12/19 02:37:38;;;;;;;3.75;1.38;;;;;;;;;;4993297;28;20026;-71
2022/12/19 02:40:04;;;;;;;5.32;1.58;;;;;;;;;;4999048;28;20088;-71
2022/12/19 02:42:37;;;;;;;2.67;1.38;;;;;;;;;;4999152;28;20028;-72
2022/12/19 02:45:05;;;;;;;9.35;1.83;;;;;;;;;;4989728;28;20061;-71
2022/12/19 02:47:32;;;;;;;3.80;1.15;;;;;;;;;;4998481;28;20088;-72
2022/12/19 02:49:58;;;;;;;2.55;1.25;;;;;;;;;;4996908;28;20029;-71
2022/12/19 02:52:24;;;;;;;2.13;1.15;;;;;;;;;;4988619;28;20487;-72
2022/12/19 02:54:53;;;;;;;6.00;1.30;;;;;;;;;;4996097;28;20033;-70
2022/12/19 02:57:28;;;;;;;3.88;1.42;;;;;;;;;;4998752;28;20503;-71
2022/12/19 02:59:57;;;;;;;6.13;1.52;;;;;;;;;;4996244;28;20040;-71
2022/12/19 03:02:44;;;;;;;5.32;1.45;;;;;;;;;;5001375;28;20030;-70
2022/12/19 03:05:29;;;;;;;5.10;1.40;;;;;;;;;;5002986;28;20036;-71
2022/12/19 03:08:04;;;;;;;4.40;1.48;;;;;;;;;;5000741;28;20565;-70
2022/12/19 03:10:36;;;;;;;3.90;1.40;;;;;;;;;;4996115;28;20429;-71
2022/12/19 03:13:08;;;;;;;4.47;1.58;;;;;;;;;;5013922;28;20042;-70
2022/12/19 03:15:35;;;;;;;7.72;1.63;;;;;;;;;;4998771;28;20037;-71
2022/12/19 03:18:01;;;;;;;3.22;1.10;;;;;;;;;;4999540;28;20030;-71
2022/12/19 03:20:46;;;;;;;3.13;1.13;;;;;;;;;;4999818;28;20014;-70
2022/12/19 03:23:13;;;;;;;4.38;1.50;;;;;;;;;;4999357;28;20032;-71
2022/12/19 03:25:40;;;;;;;3.53;1.70;;;;;;;;;;5001157;28;20149;-71
2022/12/19 03:28:08;;;;;;;9.40;1.23;;;;;;;;;;4997837;28;20026;-72
2022/12/19 03:30:35;;;;;;;5.80;1.45;;;;;;;;;;5002620;28;20034;-71
2022/12/19 03:33:02;;;;;;;2.22;1.10;;;;;;;;;;5001507;28;20914;-71
2022/12/19 03:35:30;;;;;;;6.60;1.23;;;;;;;;;;4999487;28;20084;-72
2022/12/19 03:37:57;;;;;;;6.07;1.00;;;;;;;;;;5001063;28;20025;-71
2022/12/19 03:40:25;;;;;;;3.72;1.23;;;;;;;;;;5000324;28;20026;-71
2022/12/19 03:43:09;;;;;;;5.45;1.17;;;;;;;;;;5001924;28;20516;-76
2022/12/19 03:45:42;;;;;;;4.13;0.80;;;;;;;;;;4998173;28;20145;-71
2022/12/19 03:48:28;;;;;;;1.98;0.82;;;;;;;;;;5000922;28;20029;-72
2022/12/19 03:51:04;;;;;;;2.13;1.00;;;;;;;;;;4987902;28;20042;-72
2022/12/19 03:53:53;;;;;;;6.13;1.20;;;;;;;;;;5000163;28;20041;-71
2022/12/19 03:56:30;;;;;;;4.30;1.17;;;;;;;;;;5002959;28;20123;-73
2022/12/19 03:59:02;;;;;;;5.55;1.63;;;;;;;;;;5003115;28;20127;-74
2022/12/19 04:01:31;;;;;;;4.18;1.40;;;;;;;;;;5002281;28;20113;-72
2022/12/19 04:03:58;;;;;;;5.32;1.40;;;;;;;;;;5002931;28;20026;-77
2022/12/19 04:06:25;;;;;;;6.40;1.10;;;;;;;;;;5002232;28;20079;-71
2022/12/19 04:08:52;;;;;;;3.75;1.20;;;;;;;;;;4995545;28;20044;-71
2022/12/19 04:11:19;;;;;;;11.40;4.78;;;;;;;;;;5001580;28;20037;-71
2022/12/19 04:13:55;;;;;;;13.38;5.55;;;;;;;;;;5001391;28;20026;-71
2022/12/19 04:16:27;;;;;;;3.97;1.17;;;;;;;;;;5001459;28;20061;-71
2022/12/19 04:18:59;;;;;;;2.58;0.93;;;;;;;;;;4999430;28;20136;-72
2022/12/19 04:21:30;;;;;;;5.32;1.10;;;;;;;;;;4997477;28;20034;-71
2022/12/19 04:24:09;;;;;;;3.22;0.90;;;;;;;;;;5001046;28;20072;-74
2022/12/19 04:26:36;;;;;;;4.47;1.27;;;;;;;;;;4997466;28;20507;-71
2022/12/19 04:29:04;;;;;;;17.83;9.98;;;;;;;;;;5001529;28;20041;-73
2022/12/19 04:31:30;;;;;;;6.28;1.70;;;;;;;;;;5000068;28;20032;-71
2022/12/19 04:33:56;;;;;;;3.13;1.00;;;;;;;;;;4998308;28;20025;-71
2022/12/19 04:36:24;;;;;;;2.83;1.30;;;;;;;;;;4995653;28;20066;-71
2022/12/19 04:38:50;;;;;;;5.85;1.35;;;;;;;;;;5002071;28;20041;-71
2022/12/19 04:41:16;;;;;;;4.30;1.38;;;;;;;;;;4999457;28;20038;-76
2022/12/19 04:43:43;;;;;;;6.22;1.30;;;;;;;;;;4997828;28;20028;-70
2022/12/19 04:46:09;;;;;;;5.03;2.53;;;;;;;;;;4995715;28;20034;-73
2022/12/19 04:48:35;;;;;;;8.43;3.00;;;;;;;;;;4990974;28;20423;-71
2022/12/19 04:51:02;;;;;;;5.70;2.05;;;;;;;;;;5001524;28;20036;-71
2022/12/19 04:53:28;;;;;;;3.08;1.25;;;;;;;;;;4999974;28;20438;-71
2022/12/19 04:56:04;;;;;;;3.60;1.00;;;;;;;;;;4996828;28;20098;-71
2022/12/19 04:58:31;;;;;;;6.10;1.23;;;;;;;;;;4998013;28;20059;-74
2022/12/19 05:01:04;;;;;;;3.20;1.25;;;;;;;;;;4995810;28;20026;-71
2022/12/19 05:03:31;;;;;;;8.52;2.28;;;;;;;;;;4995950;28;20036;-72
2022/12/19 05:06:07;;;;;;;5.90;2.08;;;;;;;;;;4998896;28;20795;-71
2022/12/19 05:08:35;;;;;;;5.25;2.20;;;;;;;;;;4996291;28;20060;-70
2022/12/19 05:11:02;;;;;;;6.82;1.20;;;;;;;;;;4996440;28;20026;-72
2022/12/19 05:13:29;;;;;;;2.97;1.40;;;;;;;;;;4998056;28;20061;-71
2022/12/19 05:16:05;;;;;;;5.18;1.73;;;;;;;;;;4999339;28;20045;-71
2022/12/19 05:18:32;;;;;;;3.38;1.33;;;;;;;;;;5000308;28;20038;-72
2022/12/19 05:20:58;;;;;;;3.78;1.30;;;;;;;;;;4996877;28;20104;-71
2022/12/19 05:23:25;;;;;;;6.55;1.73;;;;;;;;;;5000456;28;20497;-71
2022/12/19 05:25:51;;;;;;;3.58;1.00;;;;;;;;;;4999833;28;20049;-71
2022/12/19 05:28:18;;;;;;;6.70;1.90;;;;;;;;;;4997619;28;20034;-75
2022/12/19 05:30:44;;;;;;;6.93;1.38;;;;;;;;;;4996990;28;20125;-71
2022/12/19 05:33:11;;;;;;;6.80;1.58;;;;;;;;;;4995634;28;20048;-71
2022/12/19 05:35:38;;;;;;;2.63;1.23;;;;;;;;;;4994950;28;20029;-71
2022/12/19 05:38:04;;;;;;;3.55;1.17;;;;;;;;;;4993612;28;20025;-71
2022/12/19 05:40:30;;;;;;;3.67;1.20;;;;;;;;;;4996841;28;20080;-72
2022/12/19 05:42:56;;;;;;;3.92;1.52;;;;;;;;;;4996544;28;20422;-71
2022/12/19 05:45:23;;;;;;;1.67;1.20;;;;;;;;;;4998045;28;20104;-71
2022/12/19 05:47:49;;;;;;;5.57;1.65;;;;;;;;;;4998246;28;20547;-72
2022/12/19 05:50:16;;;;;;;5.68;1.33;;;;;;;;;;4998275;28;20492;-71
2022/12/19 05:52:42;;;;;;;3.15;1.25;;;;;;;;;;4996237;28;20037;-71
2022/12/19 05:55:09;;;;;;;4.32;1.30;;;;;;;;;;4994708;28;20479;-71
2022/12/19 05:57:35;;;;;;;3.53;1.20;;;;;;;;;;4997950;28;20131;-72
2022/12/19 06:00:02;;;;;;;4.03;1.45;;;;;;;;;;4996200;28;20021;-71
2022/12/19 06:02:32;;;;;;;3.00;1.60;;;;;;;;;;4997437;28;20034;-72
2022/12/19 06:04:58;;;;;;;3.42;1.50;;;;;;;;;;4995249;28;20034;-71
2022/12/19 06:07:24;;;;;;;3.53;1.30;;;;;;;;;;4996478;28;20030;-71
2022/12/19 06:09:50;;;;;;;4.50;1.55;;;;;;;;;;4998530;28;20112;-71
2022/12/19 06:12:17;;;;;;;4.28;1.50;;;;;;;;;;4997359;28;20050;-71
2022/12/19 06:14:43;;;;;;;5.25;1.52;;;;;;;;;;4995328;28;20025;-71
2022/12/19 06:17:09;;;;;;;2.17;1.15;;;;;;;;;;4997318;28;20041;-71
2022/12/19 06:19:35;;;;;;;4.00;1.25;;;;;;;;;;4994909;28;20031;-71
2022/12/19 06:22:01;;;;;;;2.65;1.50;;;;;;;;;;4995373;28;20356;-71
2022/12/19 06:24:28;;;;;;;4.13;1.25;;;;;;;;;;4994687;28;20502;-71
2022/12/19 06:26:54;;;;;;;4.72;1.52;;;;;;;;;;4997378;28;20053;-71
2022/12/19 06:29:20;;;;;;;3.15;1.30;;;;;;;;;;4997276;28;20279;-71
2022/12/19 06:31:47;;;;;;;3.60;1.38;;;;;;;;;;4998197;28;20108;-72
2022/12/19 06:34:13;;;;;;;2.45;1.35;;;;;;;;;;4998864;28;20030;-71
2022/12/19 06:36:39;;;;;;;2.90;1.30;;;;;;;;;;5000920;28;20393;-71
2022/12/19 06:39:05;;;;;;;3.78;1.60;;;;;;;;;;5001210;28;20548;-71
2022/12/19 06:44:16;;;;;;;2.55;1.38;;;;;;;;;;4997265;28;20048;-71
2022/12/19 06:46:43;;;;;;;3.65;1.20;;;;;;;;;;4998397;28;20034;-71
2022/12/19 06:49:10;;;;;;;2.65;1.45;;;;;;;;;;4999988;28;20026;-71
2022/12/19 06:51:36;;;;;;;5.53;1.23;;;;;;;;;;4998340;28;20038;-72
2022/12/19 06:54:02;;;;;;;4.50;1.50;;;;;;;;;;4993414;28;20073;-71
2022/12/19 06:56:33;;;;;;;2.65;1.50;;;;;;;;;;4996685;28;20041;-71
2022/12/19 06:59:00;;;;;;;2.90;1.40;;;;;;;;;;4996633;28;20100;-71
2022/12/19 07:01:32;;;;;;;4.70;1.58;;;;;;;;;;4998340;28;20344;-71
2022/12/19 07:03:58;;;;;;;4.47;1.63;;;;;;;;;;4998470;28;20087;-71
2022/12/19 07:06:24;;;;;;;4.82;1.88;;;;;;;;;;4999396;28;20041;-72
2022/12/19 07:08:50;;;;;;;3.53;1.27;;;;;;;;;;4999790;28;20032;-70
2022/12/19 07:11:16;;;;;;;11.60;2.33;;;;;;;;;;5000317;28;20036;-71
2022/12/19 07:13:43;;;;;;;4.70;1.42;;;;;;;;;;4997982;28;20803;-70
2022/12/19 07:16:09;;;;;;;3.60;1.40;;;;;;;;;;4997900;28;20965;-70
2022/12/19 07:18:36;;;;;;;3.05;1.40;;;;;;;;;;4999152;28;20076;-75
2022/12/19 07:21:03;;;;;;;4.38;1.50;;;;;;;;;;4997684;28;20109;-72
2022/12/19 07:23:30;;;;;;;3.08;1.40;;;;;;;;;;4999719;28;20030;-74
2022/12/19 07:25:57;;;;;;;5.75;2.28;;;;;;;;;;4995224;28;20572;-72
2022/12/19 07:28:23;;;;;;;5.50;2.30;;;;;;;;;;5001363;28;20034;-72
2022/12/19 07:30:49;;;;;;;3.72;1.73;;;;;;;;;;4998248;28;20025;-74
2022/12/19 07:33:15;;;;;;;4.93;1.52;;;;;;;;;;4997191;28;20038;-71
2022/12/19 07:35:42;;;;;;;3.85;2.00;;;;;;;;;;4994916;28;20091;-74
2022/12/19 07:38:08;;;;;;;6.78;1.60;;;;;;;;;;4999151;28;20057;-72
2022/12/19 07:40:34;;;;;;;2.78;1.45;;;;;;;;;;4992302;28;20030;-73
2022/12/19 07:43:01;;;;;;;2.47;1.30;;;;;;;;;;4995764;28;20033;-72
2022/12/19 07:45:28;;;;;;;2.20;1.20;;;;;;;;;;4995432;28;20121;-72
2022/12/19 07:47:54;;;;;;;3.85;1.50;;;;;;;;;;4999232;28;20472;-74
2022/12/19 07:50:20;;;;;;;4.22;1.30;;;;;;;;;;4999498;28;20041;-76
2022/12/19 07:52:47;;;;;;;4.00;1.60;;;;;;;;;;4999469;28;20136;-76
2022/12/19 07:55:13;;;;;;;2.70;1.20;;;;;;;;;;4996608;28;20462;-73
2022/12/19 07:57:39;;;;;;;3.35;1.60;;;;;;;;;;4995372;28;20127;-71
2022/12/19 08:00:05;;;;;;;2.90;1.52;;;;;;;;;;4996688;28;20053;-72
2022/12/19 08:02:32;;;;;;;4.97;1.67;;;;;;;;;;4994213;28;20034;-71
2022/12/19 08:04:58;;;;;;;3.95;1.58;;;;;;;;;;4996168;28;20030;-72
2022/12/19 08:07:24;;;;;;;4.78;2.33;;;;;;;;;;4998207;28;20025;-72
2022/12/19 08:09:50;;;;;;;4.38;1.40;;;;;;;;;;5009073;28;20035;-71
2022/12/19 08:12:16;;;;;;;2.38;1.40;;;;;;;;;;4998059;28;20036;-71
2022/12/19 08:14:45;;;;;;;1.98;1.30;;;;;;;;;;4996008;28;20026;-75
2022/12/19 08:17:11;;;;;;;1.40;1.23;;;;;;;;;;4997068;28;20022;-71
2022/12/19 08:19:37;;;;;;;5.88;1.40;;;;;;;;;;4998061;28;20493;-71
2022/12/19 08:22:03;;;;;;;5.55;1.30;;;;;;;;;;5000328;28;20672;-70
2022/12/19 08:24:30;;;;;;;3.67;1.38;;;;;;;;;;4996184;28;20103;-74
2022/12/19 08:26:56;;;;;;;3.42;1.20;;;;;;;;;;4996729;28;20057;-71
2022/12/19 08:29:23;;;;;;;3.67;1.30;;;;;;;;;;4995323;28;20022;-71
2022/12/19 08:31:49;;;;;;;2.97;1.38;;;;;;;;;;4997989;28;20611;-71
2022/12/19 08:34:15;;;;;;;4.75;1.65;;;;;;;;;;4996431;28;20038;-71
2022/12/19 08:36:41;;;;;;;5.60;1.98;;;;;;;;;;5000390;28;20069;-73
2022/12/19 08:39:08;;;;;;;7.22;2.22;;;;;;;;;;4994422;28;20034;-71
2022/12/19 08:41:34;;;;;;;4.47;2.03;;;;;;;;;;4997194;28;20038;-75
2022/12/19 08:44:00;;;;;;;4.10;2.20;;;;;;;;;;4998203;28;20038;-71
2022/12/19 08:46:26;;;;;;;4.50;1.67;;;;;;;;;;4998353;28;20797;-74
2022/12/19 08:48:53;;;;;;;2.92;1.50;;;;;;;;;;4998914;28;20463;-71
2022/12/19 08:51:19;;;;;;;5.43;1.70;;;;;;;;;;4998980;28;20030;-71
2022/12/19 08:53:46;;;;;;;4.45;1.90;;;;;;;;;;4997101;28;20787;-70
2022/12/19 08:56:13;;;;;;;4.00;1.98;;;;;;;;;;4995030;28;20042;-70
2022/12/19 08:58:40;;;;;;;4.50;1.88;;;;;;;;;;4997625;28;20033;-72
2022/12/19 09:01:07;;;;;;;3.45;1.40;;;;;;;;;;4991702;28;20056;-71
2022/12/19 09:03:34;;;;;;;3.72;1.60;;;;;;;;;;4997877;28;20152;-72
2022/12/19 09:06:01;;;;;;;5.47;2.30;;;;;;;;;;4998460;28;20025;-73
2022/12/19 09:08:28;;;;;;;8.10;3.60;;;;;;;;;;4994700;28;20057;-70
2022/12/19 09:10:58;;;;;;;7.00;2.70;;;;;;;;;;4995724;28;20021;-74
2022/12/19 09:13:25;;;;;;;6.60;2.47;;;;;;;;;;4997979;28;20042;-71
2022/12/19 09:15:58;;;;;;;7.78;2.75;;;;;;;;;;4997429;28;20539;-70
2022/12/19 09:18:24;;;;;;;4.38;2.17;;;;;;;;;;4995156;28;20084;-72
2022/12/19 09:20:53;;;;;;;5.18;2.03;;;;;;;;;;4995620;28;20022;-70
2022/12/19 09:23:19;;;;;;;4.25;1.90;;;;;;;;;;4996809;28;20026;-70
2022/12/19 09:25:45;;;;;;;4.35;1.77;;;;;;;;;;4998224;28;20049;-70
2022/12/19 09:28:11;;;;;;;3.63;1.50;;;;;;;;;;4995709;28;20265;-71
2022/12/19 09:30:38;;;;;;;3.03;1.48;;;;;;;;;;4997137;28;20423;-72
2022/12/19 09:33:04;;;;;;;3.13;1.35;;;;;;;;;;4992507;28;20804;-71
2022/12/19 09:35:30;;;;;;;5.35;1.52;;;;;;;;;;4996678;28;20045;-71
2022/12/19 09:37:57;;;;;;;4.20;1.30;;;;;;;;;;4998783;28;20037;-72
2022/12/19 09:40:24;;;;;;;3.45;1.70;;;;;;;;;;4999101;28;20022;-71
2022/12/19 09:42:53;;;;;;;4.18;1.70;;;;;;;;;;5003566;28;20022;-71
2022/12/19 09:45:19;;;;;;;4.05;2.05;;;;;;;;;;4996487;28;20033;-70
2022/12/19 09:47:50;;;;;;;3.55;1.60;;;;;;;;;;4997293;28;20088;-71
2022/12/19 09:50:32;;;;;;;2.55;1.40;;;;;;;;;;4996907;28;20068;-70
2022/12/19 09:53:02;;;;;;;3.03;1.70;;;;;;;;;;4995878;28;20048;-72
2022/12/19 09:55:34;;;;;;;3.40;1.50;;;;;;;;;;4992810;28;20104;-71
2022/12/19 09:58:03;;;;;;;5.45;2.00;;;;;;;;;;4996297;28;20263;-72
2022/12/19 10:00:33;;;;;;;4.65;1.83;;;;;;;;;;4993911;28;20033;-72
2022/12/19 10:03:03;;;;;;;3.65;1.48;;;;;;;;;;4995702;28;20483;-72
2022/12/19 10:05:35;;;;;;;5.13;1.70;;;;;;;;;;4994506;28;20036;-72
2022/12/19 10:08:01;;;;;;;;;;;;;;;;;;4991684;28;20035;-72
2022/12/19 10:10:46;;;;;;;3.92;1.80;;;;;;;;;;4994568;28;19917;-74
2022/12/19 10:13:36;;;;;;;4.47;2.05;;;;;;;;;;4994100;28;20037;-72
2022/12/19 10:16:20;;;;;;;4.50;2.88;;;;;;;;;;4978409;28;20040;-71
2022/12/19 10:18:52;;;;;;;5.18;2.67;;;;;;;;;;4991912;28;20036;-71
2022/12/19 10:21:18;;;;;;;;;;;;;;;;;;4998161;28;20025;-72
2022/12/19 10:24:00;;;;;;;4.15;1.58;;;;;;;;;;4997094;28;19913;-71
2022/12/19 10:26:34;;;;;;;4.83;1.83;;;;;;;;;;4994370;28;21147;-71
2022/12/19 10:29:13;;;;;;;2.85;1.60;;;;;;;;;;4997243;28;20170;-73
2022/12/19 10:31:44;;;;;;;2.78;1.50;;;;;;;;;;4998413;28;20037;-72
2022/12/19 10:34:21;;;;;;;7.75;1.77;;;;;;;;;;4995338;28;20041;-71
2022/12/19 10:36:54;;;;;;;2.65;1.48;;;;;;;;;;4994633;28;20030;-72
2022/12/19 10:39:20;;;;;;;2.67;1.35;;;;;;;;;;4995938;28;20120;-72
2022/12/19 10:41:48;;;;;;;2.75;1.52;;;;;;;;;;4997719;28;20030;-74
2022/12/19 10:44:14;;;;;;;6.43;1.90;;;;;;;;;;4995970;28;20030;-76
2022/12/19 10:46:40;;;;;;;2.33;1.55;;;;;;;;;;4995883;28;20139;-74
2022/12/19 10:49:15;;;;;;;4.63;1.77;;;;;;;;;;4998018;28;20637;-70
2022/12/19 10:51:42;;;;;;;3.55;1.80;;;;;;;;;;4994105;28;20164;-71
2022/12/19 10:54:09;;;;;;;3.08;1.40;;;;;;;;;;4994423;28;20022;-71
2022/12/19 10:56:36;;;;;;;7.10;2.15;;;;;;;;;;4997008;28;20033;-72
2022/12/19 10:59:02;;;;;;;3.60;1.48;;;;;;;;;;4997280;28;20034;-71
2022/12/19 11:01:34;;;;;;;2.45;1.60;;;;;;;;;;4996415;28;20645;-73
2022/12/19 11:04:12;;;;;;;1.92;1.30;;;;;;;;;;4995286;28;20058;-70
2022/12/19 11:06:45;;;;;;;2.00;1.42;;;;;;;;;;4995179;28;20091;-70
2022/12/19 11:09:31;;;;;;;3.75;1.42;;;;;;;;;;4994109;28;20057;-72
2022/12/19 11:11:57;;;;;;;2.42;1.40;;;;;;;;;;4993839;28;20498;-71
2022/12/19 11:14:25;;;;;;;2.10;1.27;;;;;;;;;;4996103;28;20022;-72
2022/12/19 11:16:51;;;;;;;2.33;1.10;;;;;;;;;;4993726;28;20037;-72
2022/12/19 11:19:29;;;;;;;2.05;1.30;;;;;;;;;;4997865;28;20064;-70
2022/12/19 11:22:07;;;;;;;3.03;1.40;;;;;;;;;;4996643;28;21859;-71
2022/12/19 11:24:39;;;;;;;4.97;1.42;;;;;;;;;;4997935;28;20029;-70
2022/12/19 11:27:24;;;;;;;2.55;1.00;;;;;;;;;;4999929;28;20389;-70
2022/12/19 11:29:51;;;;;;;4.55;1.27;;;;;;;;;;4998701;28;20036;-70
2022/12/19 11:32:30;;;;;;;2.08;1.17;;;;;;;;;;5014974;28;20049;-71
2022/12/19 11:34:59;;;;;;;2.05;1.23;;;;;;;;;;4995359;28;20500;-70
2022/12/19 11:37:40;;;;;;;2.83;1.40;;;;;;;;;;5000057;28;20030;-70
2022/12/19 11:40:13;;;;;;;2.75;1.27;;;;;;;;;;4997026;28;20029;-70
2022/12/19 11:42:49;;;;;;;3.92;1.35;;;;;;;;;;4998231;28;20029;-71
2022/12/19 11:45:30;;;;;;;1.90;1.20;;;;;;;;;;4993872;28;20823;-70
2022/12/19 11:48:02;;;;;;;2.38;1.10;;;;;;;;;;4994290;28;20045;-70
2022/12/19 11:50:32;;;;;;;2.25;1.10;;;;;;;;;;4999891;28;20033;-71
2022/12/19 11:53:19;;;;;;;2.63;1.30;;;;;;;;;;4998521;28;20030;-70
2022/12/19 11:55:50;;;;;;;5.60;2.10;;;;;;;;;;5012356;28;20386;-71
2022/12/19 11:58:16;;;;;;;3.50;1.53;;;;;;;;;;4999548;28;20095;-70
2022/12/19 12:01:05;;;;;;;2.50;1.27;;;;;;;;;;4998979;28;20334;-71
2022/12/19 12:03:44;;;;;;;2.20;1.13;;;;;;;;;;4968122;28;20168;-70
2022/12/19 12:06:16;;;;;;;3.15;1.27;;;;;;;;;;5009516;28;20135;-71
2022/12/19 12:08:58;;;;;;;2.20;1.15;;;;;;;;;;4995629;28;20033;-70
2022/12/19 12:11:25;;;;;;;2.88;1.20;;;;;;;;;;4995428;28;20057;-70
2022/12/19 12:14:02;;;;;;;2.67;1.30;;;;;;;;;;4999637;28;20514;-71
2022/12/19 12:16:34;;;;;;;1.58;1.02;;;;;;;;;;5000491;28;20034;-70
2022/12/19 12:19:00;;;;;;;4.10;1.25;;;;;;;;;;4998190;28;20120;-70
2022/12/19 12:21:36;;;;;;;4.65;1.38;;;;;;;;;;4998722;28;20806;-70
2022/12/19 12:24:02;;;;;;;2.58;1.30;;;;;;;;;;4997564;28;20121;-70
2022/12/19 12:26:36;;;;;;;2.65;0.90;;;;;;;;;;4998869;28;20589;-71
2022/12/19 12:29:08;;;;;;;5.80;1.52;;;;;;;;;;4998521;28;20022;-70
2022/12/19 12:31:35;;;;;;;4.30;1.30;;;;;;;;;;4997153;28;20030;-75
2022/12/19 12:34:19;;;;;;;2.38;1.70;;;;;;;;;;4997180;28;20163;-70
2022/12/19 12:37:01;;;;;;;2.28;1.20;;;;;;;;;;4996594;28;20530;-70
2022/12/19 12:39:27;;;;;;;1.30;1.10;;;;;;;;;;4994261;28;20034;-71
2022/12/19 12:42:12;;;;;;;12.13;1.60;;;;;;;;;;5000086;28;20409;-70
2022/12/19 12:44:40;;;;;;;1.58;1.10;;;;;;;;;;4996983;28;20040;-74
2022/12/19 12:47:23;;;;;;;3.97;1.05;;;;;;;;;;4993904;28;20026;-70
2022/12/19 12:49:58;;;;;;;2.30;1.20;;;;;;;;;;4995086;28;20089;-70
2022/12/19 12:52:29;;;;;;;4.13;1.40;;;;;;;;;;4998920;28;20048;-70
2022/12/19 12:54:56;;;;;;;2.03;1.30;;;;;;;;;;4999519;28;20014;-71
2022/12/19 12:57:26;;;;;;;2.30;1.17;;;;;;;;;;4999102;28;20319;-70
2022/12/19 13:00:12;;;;;;;2.15;1.20;;;;;;;;;;4998136;28;20029;-70
2022/12/19 13:02:39;;;;;;;3.83;1.30;;;;;;;;;;4989589;28;20045;-73
2022/12/19 13:05:18;;;;;;;3.10;1.27;;;;;;;;;;4997555;28;20032;-70
2022/12/19 13:07:50;;;;;;;1.63;1.52;;;;;;;;;;4996727;28;20758;-70
2022/12/19 13:10:19;;;;;;;2.83;1.42;;;;;;;;;;4997354;28;20034;-70
2022/12/19 13:13:12;;;;;;;3.00;1.45;;;;;;;;;;4995413;28;20138;-70
2022/12/19 13:15:43;;;;;;;2.28;1.25;;;;;;;;;;4992473;28;20095;-70
2022/12/19 13:18:13;;;;;;;2.80;1.40;;;;;;;;;;4999215;28;20026;-70
2022/12/19 13:20:39;;;;;;;2.78;1.27;;;;;;;;;;4995940;28;20487;-70
2022/12/19 13:23:19;;;;;;;4.90;1.67;;;;;;;;;;4998406;28;20081;-70
2022/12/19 13:25:47;;;;;;;2.40;1.45;;;;;;;;;;4998543;28;20049;-71
2022/12/19 13:28:20;;;;;;;2.33;1.23;;;;;;;;;;4991822;28;20030;-70
2022/12/19 13:31:01;;;;;;;2.83;1.33;;;;;;;;;;4998392;28;20030;-71
2022/12/19 13:33:46;;;;;;;2.75;1.33;;;;;;;;;;4992127;28;20038;-70
2022/12/19 13:36:31;;;;;;;1.88;1.40;;;;;;;;;;4996004;28;20038;-70
2022/12/19 13:38:59;;;;;;;2.70;1.58;;;;;;;;;;4990390;28;20037;-70
2022/12/19 13:44:18;;;;;;;3.95;1.67;;;;;;;;;;4996117;28;20111;-69
2022/12/19 13:46:45;;;;;;;6.88;1.70;;;;;;;;;;4998249;28;20045;-69
2022/12/19 13:49:14;;;;;;;3.17;1.70;;;;;;;;;;4996838;28;20030;-70
2022/12/19 13:51:47;;;;;;;3.47;1.90;;;;;;;;;;4997737;28;20522;-70
2022/12/19 13:54:18;;;;;;;6.95;3.42;;;;;;;;;;4995334;28;20025;-70
2022/12/19 13:56:44;;;;;;;14.35;5.00;;;;;;;;;;4998505;28;20018;-70
2022/12/19 13:59:10;;;;;;;19.73;6.22;;;;;;;;;;4998234;28;20033;-70
2022/12/19 14:01:37;;;;;;;16.15;6.85;;;;;;;;;;4998682;28;20030;-72
2022/12/19 14:04:16;;;;;;;20.65;7.13;;;;;;;;;;4992932;28;20145;-70
2022/12/19 14:06:46;;;;;;;19.75;7.72;;;;;;;;;;4998005;28;20403;-71
2022/12/19 14:09:18;;;;;;;18.85;5.40;;;;;;;;;;4998078;28;20038;-70
2022/12/19 14:11:44;;;;;;;;;;;;;;;;;;4996407;28;20116;-71
2022/12/19 14:17:21;;;;;;;13.88;4.95;;;;;;;;;;4998274;28;20184;-70
2022/12/19 14:19:49;;;;;;;12.73;4.20;;;;;;;;;;4993531;28;20022;-71
2022/12/19 14:22:18;;;;;;;7.05;2.95;;;;;;;;;;5000787;28;20030;-71
2022/12/19 14:24:58;;;;;;;5.63;2.72;;;;;;;;;;4996685;28;20030;-70
2022/12/19 14:27:31;;;;;;;8.35;2.60;;;;;;;;;;4998729;28;20108;-72
2022/12/19 14:29:58;;;;;;;6.47;3.20;;;;;;;;;;4994722;28;20022;-70
2022/12/19 14:32:25;;;;;;;5.50;2.50;;;;;;;;;;4999545;28;20070;-70
2022/12/19 14:34:51;;;;;;;8.60;2.25;;;;;;;;;;4995509;28;20026;-71
2022/12/19 14:37:29;;;;;;;4.10;2.40;;;;;;;;;;4999162;28;20502;-70
2022/12/19 14:40:05;;;;;;;3.28;2.05;;;;;;;;;;4996093;28;20033;-70
2022/12/19 14:45:34;;;;;;;2.95;2.20;;;;;;;;;;4995649;28;20858;-70
2022/12/19 14:48:01;;;;;;;3.92;2.40;;;;;;;;;;4995634;28;20045;-71
2022/12/19 14:50:37;;;;;;;3.97;2.53;;;;;;;;;;4994632;28;20033;-73
2022/12/19 14:53:09;;;;;;;2.92;2.53;;;;;;;;;;4999832;28;20030;-70
2022/12/19 14:55:35;;;;;;;;;;;;;;;;;;5002875;28;20025;-70
2022/12/19 14:58:10;;;;;;;3.67;1.90;;;;;;;;;;5000118;28;19909;-71
2022/12/19 15:00:47;;;;;;;5.55;2.20;;;;;;;;;;5001326;28;20017;-70
2022/12/19 15:03:32;;;;;;;6.25;2.13;;;;;;;;;;5000162;28;20072;-71
2022/12/19 15:06:07;;;;;;;3.13;2.00;;;;;;;;;;4999850;28;20054;-71
2022/12/19 15:08:34;;;;;;;3.03;2.05;;;;;;;;;;4999909;28;20102;-70